createdAt,value
2022-10-14T00:00:34.988Z,9.35
2022-10-14T00:03:01.591Z,9.33
2022-10-14T00:05:28.482Z,9.34
2022-10-14T00:07:55.067Z,9.35
2022-10-14T00:10:21.752Z,9.35
2022-10-14T00:12:48.480Z,9.36
2022-10-14T00:15:15.010Z,9.35
2022-10-14T00:17:41.818Z,9.36
2022-10-14T00:20:08.960Z,9.39
2022-10-14T00:22:35.648Z,9.32
2022-10-14T00:25:02.180Z,9.34
2022-10-14T00:27:29.564Z,9.28
2022-10-14T00:29:56.077Z,9.33
2022-10-14T00:32:22.762Z,9.36
2022-10-14T00:34:52.168Z,9.37
2022-10-14T00:37:19.422Z,9.37
2022-10-14T00:39:46.378Z,9.39
2022-10-14T00:42:14.407Z,9.47
2022-10-14T00:45:03.683Z,9.53
2022-10-14T00:47:31.071Z,9.52
2022-10-14T00:49:59.908Z,9.55
2022-10-14T00:52:29.817Z,9.63
2022-10-14T00:55:06.520Z,9.75
2022-10-14T00:57:35.131Z,9.81
2022-10-14T01:00:08.618Z,9.85
2022-10-14T01:02:35.799Z,9.89
2022-10-14T01:05:03.289Z,9.96
2022-10-14T01:07:43.651Z,10.01
2022-10-14T01:10:20.188Z,10.01
2022-10-14T01:13:24.988Z,10.04
2022-10-14T01:15:57.337Z,10.06
2022-10-14T01:18:33.063Z,10.09
2022-10-14T01:21:20.243Z,10.03
2022-10-14T01:24:16.959Z,10.06
2022-10-14T01:27:10.457Z,10.01
2022-10-14T01:29:43.842Z,10.01
2022-10-14T01:32:14.617Z,10.02
2022-10-14T01:34:49.712Z,9.95
2022-10-14T01:37:21.697Z,10.12
2022-10-14T01:39:54.027Z,10.03
2022-10-14T01:42:25.816Z,10.06
2022-10-14T01:44:57.706Z,10.13
2022-10-14T01:47:27.363Z,10.08
2022-10-14T01:50:00.485Z,10.10
2022-10-14T01:52:31.093Z,9.98
2022-10-14T01:55:03.195Z,9.90
2022-10-14T01:57:35.358Z,9.93
2022-10-14T02:00:05.005Z,9.92
2022-10-14T02:02:41.559Z,9.64
2022-10-14T02:05:24.215Z,10.01
2022-10-14T02:07:58.405Z,10.13
2022-10-14T02:10:41.687Z,9.93
2022-10-14T02:13:17.531Z,9.84
2022-10-14T02:15:50.414Z,9.96
2022-10-14T02:18:44.974Z,10.03
2022-10-14T02:21:51.905Z,10.08
2022-10-14T02:24:20.593Z,10.06
2022-10-14T02:26:49.863Z,10.03
2022-10-14T02:29:19.769Z,10.05
2022-10-14T02:31:48.094Z,10.02
2022-10-14T02:34:19.206Z,9.59
2022-10-14T02:36:47.642Z,9.58
2022-10-14T02:39:20.723Z,9.62
2022-10-14T02:41:47.540Z,9.70
2022-10-14T02:44:14.243Z,9.84
2022-10-14T02:46:40.903Z,9.77
2022-10-14T02:49:09.526Z,10.03
2022-10-14T02:51:36.304Z,9.98
2022-10-14T02:54:02.897Z,10.27
2022-10-14T02:56:29.487Z,10.28
2022-10-14T02:58:59.414Z,10.19
2022-10-14T03:01:26.385Z,10.15
2022-10-14T03:03:53.693Z,10.20
2022-10-14T03:06:23.440Z,10.29
2022-10-14T03:08:50.465Z,10.40
2022-10-14T03:11:17.147Z,10.40
2022-10-14T03:13:44.237Z,10.44
2022-10-14T03:16:11.604Z,10.37
2022-10-14T03:18:42.642Z,10.31
2022-10-14T03:21:19.153Z,10.32
2022-10-14T03:23:45.873Z,10.08
2022-10-14T03:26:14.119Z,10.38
2022-10-14T03:28:45.419Z,10.37
2022-10-14T03:31:26.638Z,10.26
2022-10-14T03:34:10.764Z,10.22
2022-10-14T03:36:39.503Z,10.22
2022-10-14T03:39:06.385Z,10.19
2022-10-14T03:41:59.074Z,10.40
2022-10-14T03:44:33.109Z,10.44
2022-10-14T03:47:25.626Z,10.48
2022-10-14T03:49:52.197Z,10.50
2022-10-14T03:52:34.188Z,10.50
2022-10-14T03:55:12.761Z,10.52
2022-10-14T03:57:41.916Z,10.47
2022-10-14T04:00:10.249Z,10.46
2022-10-14T04:02:43.045Z,10.32
2022-10-14T04:05:48.334Z,10.24
2022-10-14T04:08:18.848Z,10.30
2022-10-14T04:10:56.317Z,10.30
2022-10-14T04:13:25.108Z,10.31
2022-10-14T04:15:52.006Z,10.34
2022-10-14T04:18:34.072Z,10.31
2022-10-14T04:21:08.773Z,10.27
2022-10-14T04:23:37.196Z,10.25
2022-10-14T04:26:12.017Z,10.21
2022-10-14T04:28:39.556Z,10.23
2022-10-14T04:31:28.951Z,10.07
2022-10-14T04:34:00.834Z,10.27
2022-10-14T04:36:33.355Z,10.27
2022-10-14T04:39:02.173Z,10.30
2022-10-14T04:41:28.682Z,10.16
2022-10-14T04:43:58.175Z,10.04
2022-10-14T04:46:33.123Z,10.00
2022-10-14T04:49:00.344Z,9.94
2022-10-14T04:51:31.856Z,10.05
2022-10-14T04:54:23.338Z,9.85
2022-10-14T04:56:54.947Z,9.57
2022-10-14T04:59:21.615Z,10.00
2022-10-14T05:02:01.156Z,10.00
2022-10-14T05:04:36.802Z,10.11
2022-10-14T05:07:03.597Z,10.22
2022-10-14T05:09:31.012Z,10.21
2022-10-14T05:11:58.398Z,10.11
2022-10-14T05:14:34.863Z,10.18
2022-10-14T05:17:14.587Z,10.22
2022-10-14T05:19:41.322Z,10.16
2022-10-14T05:22:08.034Z,10.01
2022-10-14T05:24:39.514Z,10.06
2022-10-14T05:27:07.308Z,10.12
2022-10-14T05:29:34.656Z,10.24
2022-10-14T05:32:01.969Z,10.25
2022-10-14T05:34:36.590Z,10.24
2022-10-14T05:37:05.526Z,10.30
2022-10-14T05:39:39.312Z,10.38
2022-10-14T05:42:06.066Z,10.40
2022-10-14T05:44:34.897Z,10.41
2022-10-14T05:47:03.268Z,10.40
2022-10-14T05:49:29.823Z,10.32
2022-10-14T05:51:59.208Z,10.32
2022-10-14T05:54:28.383Z,10.36
2022-10-14T05:56:57.056Z,10.39
2022-10-14T05:59:24.369Z,10.43
2022-10-14T06:01:52.057Z,10.46
2022-10-14T06:04:20.362Z,10.53
2022-10-14T06:06:47.376Z,10.53
2022-10-14T06:09:15.272Z,10.55
2022-10-14T06:11:42.072Z,10.58
2022-10-14T06:14:08.906Z,10.52
2022-10-14T06:16:35.837Z,10.58
2022-10-14T06:19:05.147Z,10.53
2022-10-14T06:21:31.742Z,10.55
2022-10-14T06:23:58.288Z,10.53
2022-10-14T06:26:25.171Z,10.41
2022-10-14T06:28:51.801Z,10.42
2022-10-14T06:31:18.505Z,10.44
2022-10-14T06:33:45.136Z,10.44
2022-10-14T06:36:11.890Z,10.54
2022-10-14T06:38:38.602Z,10.57
2022-10-14T06:41:05.443Z,9.68
2022-10-14T06:43:33.316Z,10.36
2022-10-14T06:46:00.177Z,10.45
2022-10-14T06:48:27.054Z,10.45
2022-10-14T06:50:54.587Z,10.49
2022-10-14T06:53:21.121Z,10.49
2022-10-14T06:55:47.697Z,10.47
2022-10-14T06:58:14.421Z,10.61
2022-10-14T07:00:45.623Z,10.57
2022-10-14T07:03:14.446Z,10.60
2022-10-14T07:05:41.091Z,10.75
2022-10-14T07:08:11.467Z,10.83
2022-10-14T07:10:41.842Z,10.92
2022-10-14T07:13:08.545Z,10.92
2022-10-14T07:15:36.278Z,10.74
2022-10-14T07:18:04.263Z,10.63
2022-10-14T07:20:32.985Z,10.83
2022-10-14T07:22:59.552Z,10.66
2022-10-14T07:25:26.238Z,10.57
2022-10-14T07:27:53.190Z,10.43
2022-10-14T07:30:20.140Z,10.30
2022-10-14T07:32:46.729Z,10.50
2022-10-14T07:35:14.773Z,10.53
2022-10-14T07:37:41.436Z,10.44
2022-10-14T07:40:08.731Z,10.41
2022-10-14T07:42:35.271Z,10.56
2022-10-14T07:45:02.121Z,10.73
2022-10-14T07:47:28.628Z,10.61
2022-10-14T07:49:55.188Z,10.79
2022-10-14T07:52:22.416Z,10.92
2022-10-14T07:54:49.000Z,10.77
2022-10-14T07:57:15.589Z,10.38
2022-10-14T07:59:42.249Z,10.60
2022-10-14T08:02:11.635Z,10.73
2022-10-14T08:04:38.418Z,10.56
2022-10-14T08:07:05.126Z,10.42
2022-10-14T08:09:34.755Z,10.26
2022-10-14T08:12:01.268Z,10.59
2022-10-14T08:14:28.553Z,10.12
2022-10-14T08:16:55.101Z,10.38
2022-10-14T08:19:21.897Z,10.47
2022-10-14T08:21:48.475Z,10.43
2022-10-14T08:24:15.110Z,10.50
2022-10-14T08:26:51.112Z,10.62
2022-10-14T08:29:21.213Z,10.66
2022-10-14T08:31:47.961Z,10.70
2022-10-14T08:34:14.588Z,10.73
2022-10-14T08:36:41.322Z,10.80
2022-10-14T08:39:11.407Z,10.86
2022-10-14T08:42:16.028Z,10.96
2022-10-14T08:44:44.693Z,11.13
2022-10-14T08:47:16.383Z,11.33
2022-10-14T08:49:52.004Z,11.49
2022-10-14T08:52:37.400Z,11.19
2022-10-14T08:55:19.489Z,11.01
2022-10-14T08:57:58.059Z,11.28
2022-10-14T09:00:25.073Z,11.36
2022-10-14T09:02:52.533Z,11.30
2022-10-14T09:05:25.091Z,11.55
2022-10-14T09:07:54.870Z,11.39
2022-10-14T09:10:36.285Z,11.41
2022-10-14T09:13:09.170Z,11.16
2022-10-14T09:15:42.481Z,11.12
2022-10-14T09:18:22.803Z,11.29
2022-10-14T09:20:50.166Z,11.38
2022-10-14T09:23:19.849Z,11.60
2022-10-14T09:26:05.346Z,11.52
2022-10-14T09:28:37.441Z,11.41
2022-10-14T09:31:06.770Z,11.60
2022-10-14T09:33:37.090Z,11.71
2022-10-14T09:36:17.023Z,11.78
2022-10-14T09:38:47.107Z,11.92
2022-10-14T09:41:15.743Z,11.85
2022-10-14T09:44:19.348Z,12.02
2022-10-14T09:46:52.585Z,11.63
2022-10-14T09:49:27.029Z,11.84
2022-10-14T09:51:53.593Z,12.11
2022-10-14T09:54:25.359Z,12.07
2022-10-14T09:57:00.210Z,12.22
2022-10-14T09:59:28.250Z,12.33
2022-10-14T10:01:57.729Z,12.18
2022-10-14T10:04:31.646Z,12.21
2022-10-14T10:07:00.461Z,12.33
2022-10-14T10:09:27.300Z,12.61
2022-10-14T10:11:54.684Z,12.77
2022-10-14T10:14:28.727Z,12.83
2022-10-14T10:17:25.243Z,12.51
2022-10-14T10:20:09.186Z,12.46
2022-10-14T10:22:35.924Z,12.40
2022-10-14T10:25:02.395Z,12.52
2022-10-14T10:27:33.417Z,12.47
2022-10-14T10:30:14.518Z,12.12
2022-10-14T10:32:51.481Z,12.24
2022-10-14T10:35:56.130Z,12.31
2022-10-14T10:38:29.181Z,12.46
2022-10-14T10:41:20.453Z,12.57
2022-10-14T10:44:08.079Z,12.58
2022-10-14T10:46:52.845Z,12.54
2022-10-14T10:49:45.384Z,12.41
2022-10-14T10:52:17.478Z,12.54
2022-10-14T10:54:59.185Z,12.31
2022-10-14T10:57:38.022Z,12.40
2022-10-14T11:00:19.221Z,12.31
2022-10-14T11:02:48.907Z,12.31
2022-10-14T11:05:38.554Z,12.61
2022-10-14T11:08:13.920Z,12.66
2022-10-14T11:10:57.833Z,12.53
2022-10-14T11:13:46.997Z,12.57
2022-10-14T11:16:18.184Z,12.69
2022-10-14T11:19:01.706Z,12.91
2022-10-14T11:21:38.587Z,12.67
2022-10-14T11:24:22.901Z,12.86
2022-10-14T11:27:13.011Z,12.77
2022-10-14T11:29:51.997Z,12.70
2022-10-14T11:32:55.076Z,12.63
2022-10-14T11:35:37.063Z,12.83
2022-10-14T11:38:29.113Z,12.72
2022-10-14T11:41:07.651Z,12.71
2022-10-14T11:43:58.654Z,12.82
2022-10-14T11:46:34.541Z,12.88
2022-10-14T11:49:14.208Z,12.88
2022-10-14T11:51:48.477Z,12.86
2022-10-14T11:54:29.370Z,12.77
2022-10-14T11:57:08.177Z,12.88
2022-10-14T11:59:37.661Z,13.10
2022-10-14T12:02:14.230Z,13.18
2022-10-14T12:04:46.307Z,13.16
2022-10-14T12:07:18.426Z,12.90
2022-10-14T12:09:57.270Z,13.16
2022-10-14T12:12:28.976Z,12.91
2022-10-14T12:15:02.007Z,13.22
2022-10-14T12:17:31.464Z,13.28
2022-10-14T12:20:06.766Z,13.15
2022-10-14T12:22:33.655Z,13.24
2022-10-14T12:25:05.584Z,13.08
2022-10-14T12:27:32.815Z,13.28
2022-10-14T12:29:59.469Z,13.44
2022-10-14T12:32:28.049Z,13.52
2022-10-14T12:34:56.633Z,13.55
2022-10-14T12:37:31.618Z,13.56
2022-10-14T12:40:04.570Z,13.37
2022-10-14T12:42:47.656Z,13.34
2022-10-14T12:45:20.933Z,13.57
2022-10-14T12:48:05.329Z,13.86
2022-10-14T12:50:40.540Z,13.77
2022-10-14T12:53:19.043Z,13.74
2022-10-14T12:55:51.101Z,13.67
2022-10-14T12:58:31.002Z,13.57
2022-10-14T13:01:05.277Z,13.52
2022-10-14T13:03:40.322Z,13.46
2022-10-14T13:06:27.094Z,13.42
2022-10-14T13:09:11.904Z,13.38
2022-10-14T13:12:01.523Z,13.36
2022-10-14T13:14:30.572Z,13.41
2022-10-14T13:17:24.469Z,13.51
2022-10-14T13:19:52.537Z,13.23
2022-10-14T13:22:33.124Z,13.28
2022-10-14T13:25:07.368Z,13.45
2022-10-14T13:28:08.137Z,13.51
2022-10-14T13:30:52.177Z,13.43
2022-10-14T13:33:26.702Z,13.25
2022-10-14T13:36:11.047Z,13.28
2022-10-14T13:38:39.875Z,13.58
2022-10-14T13:41:15.120Z,13.83
2022-10-14T13:43:43.587Z,13.79
2022-10-14T13:46:19.770Z,13.57
2022-10-14T13:48:50.022Z,13.90
2022-10-14T13:51:35.615Z,14.08
2022-10-14T13:54:27.990Z,14.16
2022-10-14T14:02:44.595Z,14.25
2022-10-14T14:05:20.000Z,14.00
2022-10-14T14:10:39.353Z,13.61
2022-10-14T14:13:13.807Z,13.55
2022-10-14T14:15:40.505Z,13.53
2022-10-14T14:18:56.341Z,13.15
2022-10-14T14:21:30.980Z,13.16
2022-10-14T14:24:00.269Z,13.29
2022-10-14T14:26:34.403Z,13.20
2022-10-14T14:29:17.184Z,13.16
2022-10-14T14:32:06.594Z,13.17
2022-10-14T14:34:35.714Z,13.20
2022-10-14T14:37:25.124Z,13.25
2022-10-14T14:40:15.052Z,13.56
2022-10-14T14:42:43.694Z,13.55
2022-10-14T14:45:18.364Z,13.61
2022-10-14T14:47:47.601Z,13.72
2022-10-14T14:50:32.762Z,13.78
2022-10-14T14:53:20.940Z,13.85
2022-10-14T14:55:53.538Z,13.53
2022-10-14T14:58:26.352Z,13.23
2022-10-14T15:00:53.362Z,13.31
2022-10-14T15:03:20.599Z,13.17
2022-10-14T15:05:52.779Z,13.17
2022-10-14T15:08:25.199Z,13.17
2022-10-14T15:10:55.467Z,13.01
2022-10-14T15:13:40.023Z,13.30
2022-10-14T15:16:07.145Z,13.28
2022-10-14T15:18:33.867Z,13.37
2022-10-14T15:21:13.138Z,13.25
2022-10-14T15:23:42.429Z,13.27
2022-10-14T15:26:21.421Z,13.16
2022-10-14T15:29:08.165Z,13.18
2022-10-14T15:31:36.199Z,13.05
2022-10-14T15:34:03.877Z,12.82
2022-10-14T15:36:33.199Z,13.02
2022-10-14T15:39:00.207Z,13.07
2022-10-14T15:41:28.328Z,13.21
2022-10-14T15:43:54.915Z,13.35
2022-10-14T15:46:22.802Z,13.26
2022-10-14T15:48:51.983Z,13.00
2022-10-14T15:51:21.861Z,12.89
2022-10-14T15:53:48.702Z,12.98
2022-10-14T15:56:15.554Z,13.36
2022-10-14T15:58:42.054Z,13.24
2022-10-14T16:01:15.686Z,13.28
2022-10-14T16:03:42.278Z,13.41
2022-10-14T16:06:10.189Z,13.57
2022-10-14T16:08:38.893Z,13.62
2022-10-14T16:11:26.733Z,13.49
2022-10-14T16:13:53.563Z,13.12
2022-10-14T16:16:33.848Z,13.37
2022-10-14T16:19:00.458Z,13.15
2022-10-14T16:21:26.940Z,13.08
2022-10-14T16:23:53.532Z,13.16
2022-10-14T16:26:20.116Z,13.04
2022-10-14T16:28:46.765Z,12.98
2022-10-14T16:31:16.898Z,12.55
2022-10-14T16:33:45.699Z,12.46
2022-10-14T16:36:14.823Z,12.29
2022-10-14T16:38:41.434Z,12.27
2022-10-14T16:41:10.187Z,12.39
2022-10-14T16:43:37.289Z,12.06
2022-10-14T16:46:05.424Z,12.09
2022-10-14T16:48:33.375Z,12.33
2022-10-14T16:51:00.260Z,12.58
2022-10-14T16:53:28.862Z,12.67
2022-10-14T16:55:57.387Z,12.79
2022-10-14T16:58:23.995Z,12.87
2022-10-14T17:00:50.807Z,12.77
2022-10-14T17:03:18.748Z,12.66
2022-10-14T17:05:47.251Z,12.66
2022-10-14T17:08:16.672Z,12.67
2022-10-14T17:10:47.159Z,12.71
2022-10-14T17:13:14.112Z,12.83
2022-10-14T17:15:40.606Z,12.64
2022-10-14T17:18:09.954Z,12.84
2022-10-14T17:20:40.382Z,12.85
2022-10-14T17:23:10.258Z,12.89
2022-10-14T17:25:40.923Z,12.97
2022-10-14T17:28:07.710Z,12.80
2022-10-14T17:30:36.989Z,12.94
2022-10-14T17:33:03.885Z,12.99
2022-10-14T17:35:30.398Z,13.10
2022-10-14T17:37:57.858Z,12.99
2022-10-14T17:40:26.229Z,12.96
2022-10-14T17:42:53.521Z,12.78
2022-10-14T17:45:21.793Z,12.90
2022-10-14T17:47:48.465Z,12.81
2022-10-14T17:50:15.028Z,12.52
2022-10-14T17:52:41.618Z,12.41
2022-10-14T17:55:08.752Z,12.02
2022-10-14T17:57:35.360Z,12.33
2022-10-14T18:00:01.986Z,12.22
2022-10-14T18:02:38.902Z,12.19
2022-10-14T18:05:07.369Z,12.39
2022-10-14T18:07:36.775Z,12.21
2022-10-14T18:10:04.894Z,12.47
2022-10-14T18:12:33.396Z,12.28
2022-10-14T18:15:01.087Z,12.21
2022-10-14T18:17:27.970Z,12.33
2022-10-14T18:19:57.951Z,12.24
2022-10-14T18:22:25.903Z,12.14
2022-10-14T18:24:53.670Z,11.98
2022-10-14T18:27:24.809Z,12.12
2022-10-14T18:29:51.830Z,11.98
2022-10-14T18:32:19.023Z,12.17
2022-10-14T18:34:49.771Z,12.24
2022-10-14T18:37:17.692Z,11.66
2022-10-14T18:39:45.810Z,11.65
2022-10-14T18:42:17.147Z,11.80
2022-10-14T18:44:48.676Z,11.69
2022-10-14T18:47:15.490Z,11.83
2022-10-14T18:49:42.933Z,12.00
2022-10-14T18:52:09.742Z,12.07
2022-10-14T18:54:37.052Z,12.06
2022-10-14T18:57:03.643Z,12.01
2022-10-14T18:59:30.405Z,12.00
2022-10-14T19:01:57.362Z,11.95
2022-10-14T19:04:26.062Z,11.84
2022-10-14T19:06:57.172Z,11.94
2022-10-14T19:09:23.760Z,12.00
2022-10-14T19:11:51.416Z,11.83
2022-10-14T19:14:18.226Z,11.77
2022-10-14T19:16:45.385Z,11.97
2022-10-14T19:19:14.756Z,12.13
2022-10-14T19:21:42.530Z,12.20
2022-10-14T19:24:11.863Z,12.22
2022-10-14T19:26:44.287Z,12.09
2022-10-14T19:29:14.015Z,11.81
2022-10-14T19:31:42.058Z,11.87
2022-10-14T19:34:11.712Z,11.73
2022-10-14T19:36:40.540Z,11.81
2022-10-14T19:39:09.001Z,11.78
2022-10-14T19:41:36.667Z,11.94
2022-10-14T19:44:03.231Z,11.92
2022-10-14T19:46:30.200Z,12.08
2022-10-14T19:49:01.335Z,11.91
2022-10-14T19:51:28.876Z,11.61
2022-10-14T19:53:56.238Z,11.55
2022-10-14T19:56:23.560Z,11.57
2022-10-14T19:58:55.760Z,11.75
2022-10-14T20:01:24.936Z,11.75
2022-10-14T20:03:52.510Z,11.79
2022-10-14T20:06:20.778Z,11.83
2022-10-14T20:08:47.465Z,11.95
2022-10-14T20:11:16.235Z,11.96
2022-10-14T20:13:45.860Z,11.94
2022-10-14T20:16:13.343Z,11.85
2022-10-14T20:18:40.351Z,11.84
2022-10-14T20:21:11.399Z,11.98
2022-10-14T20:23:38.545Z,11.59
2022-10-14T20:26:07.962Z,12.02
2022-10-14T20:28:36.743Z,11.81
2022-10-14T20:31:06.386Z,11.96
2022-10-14T20:33:33.515Z,11.79
2022-10-14T20:36:10.742Z,11.87
2022-10-14T20:38:38.363Z,12.03
2022-10-14T20:41:17.128Z,12.14
2022-10-14T20:43:46.220Z,12.04
2022-10-14T20:46:13.096Z,12.18
2022-10-14T20:48:40.049Z,12.23
2022-10-14T20:51:08.365Z,12.33
2022-10-14T20:53:35.171Z,12.42
2022-10-14T20:56:12.615Z,12.41
2022-10-14T20:58:39.555Z,12.44
2022-10-14T21:01:17.111Z,12.45
2022-10-14T21:03:48.035Z,12.43
2022-10-14T21:06:17.945Z,12.33
2022-10-14T21:08:44.783Z,12.17
2022-10-14T21:11:15.281Z,12.21
2022-10-14T21:13:50.919Z,12.22
2022-10-14T21:16:20.311Z,12.28
2022-10-14T21:18:55.228Z,12.10
2022-10-14T21:21:27.500Z,12.09
2022-10-14T21:23:54.941Z,12.18
2022-10-14T21:26:21.954Z,12.18
2022-10-14T21:28:48.596Z,12.20
2022-10-14T21:31:18.728Z,12.19
2022-10-14T21:33:47.507Z,12.31
2022-10-14T21:36:16.250Z,12.31
2022-10-14T21:38:42.967Z,12.29
2022-10-14T21:41:09.613Z,12.24
2022-10-14T21:43:37.857Z,11.89
2022-10-14T21:46:11.303Z,11.90
2022-10-14T21:48:38.527Z,11.98
2022-10-14T21:51:08.981Z,11.99
2022-10-14T21:53:35.916Z,12.23
2022-10-14T21:56:03.441Z,12.12
2022-10-14T21:58:31.241Z,12.09
2022-10-14T22:01:07.147Z,12.10
2022-10-14T22:03:34.659Z,12.02
2022-10-14T22:08:39.968Z,12.06
2022-10-14T22:11:26.792Z,12.01
2022-10-14T22:13:54.863Z,11.89
2022-10-14T22:16:22.309Z,11.71
2022-10-14T22:18:50.809Z,11.71
2022-10-14T22:21:21.788Z,12.02
2022-10-14T22:23:49.112Z,12.05
2022-10-14T22:26:18.535Z,12.05
2022-10-14T22:28:45.641Z,11.98
2022-10-14T22:31:18.035Z,11.76
2022-10-14T22:33:45.487Z,11.68
2022-10-14T22:36:18.118Z,11.88
2022-10-14T22:38:47.895Z,11.93
2022-10-14T22:41:16.270Z,12.01
2022-10-14T22:43:50.820Z,11.65
2022-10-14T22:46:19.250Z,11.69
2022-10-14T22:48:46.721Z,11.64
2022-10-14T22:51:15.536Z,11.64
2022-10-14T22:53:43.457Z,11.70
2022-10-14T22:56:15.599Z,11.84
2022-10-14T22:58:42.670Z,11.95
2022-10-14T23:01:12.337Z,12.01
2022-10-14T23:03:39.708Z,12.05
2022-10-14T23:06:08.981Z,12.10
2022-10-14T23:08:36.788Z,12.22
2022-10-14T23:11:04.997Z,12.20
2022-10-14T23:13:32.490Z,12.29
2022-10-14T23:16:00.900Z,12.30
2022-10-14T23:18:29.712Z,12.34
2022-10-14T23:20:56.250Z,12.30
2022-10-14T23:23:23.029Z,12.34
2022-10-14T23:25:49.599Z,12.39
2022-10-14T23:28:16.607Z,12.42
2022-10-14T23:30:43.231Z,12.44
2022-10-14T23:33:09.954Z,12.43
2022-10-14T23:35:37.611Z,12.41
2022-10-14T23:38:04.543Z,12.46
2022-10-14T23:40:31.074Z,12.47
2022-10-14T23:42:58.009Z,12.46
2022-10-14T23:45:24.554Z,12.46
2022-10-14T23:47:51.123Z,12.44
2022-10-14T23:50:17.764Z,12.45
2022-10-14T23:52:44.590Z,12.47
2022-10-14T23:55:11.460Z,12.47
2022-10-14T23:57:38.028Z,12.46
